Time;durP1;ratioP1;P1;durP2;ratioP2;P2;SDS_P1;SDS_P2;PMS_P1;PMS_P2;Temp;Humidity;BMP_temperature;BMP_pressure;BME280_temperature;BME280_humidity;BME280_pressure;Samples;Min_cycle;Max_cycle;Signal;HPM_P1;HPM_P2
2022/11/23 00:01:36;;;;;;;76.32;34.38;;;3.50;99.90;;;;;;4998063;28;20097;-77
2022/11/23 00:04:05;;;;;;;78.43;34.40;;;3.60;99.90;;;;;;4999363;28;20495;-77
2022/11/23 00:06:31;;;;;;;76.57;33.05;;;3.60;99.90;;;;;;4998550;28;20152;-78
2022/11/23 00:08:56;;;;;;;70.70;33.50;;;3.60;99.90;;;;;;4997845;28;20088;-77
2022/11/23 00:11:23;;;;;;;74.57;33.65;;;3.60;99.90;;;;;;4998590;28;20033;-78
2022/11/23 00:13:49;;;;;;;70.82;32.90;;;3.70;99.90;;;;;;4997369;28;20030;-77
2022/11/23 00:16:21;;;;;;;68.60;32.42;;;3.70;99.90;;;;;;4997737;28;20164;-77
2022/11/23 00:18:50;;;;;;;75.70;33.47;;;3.60;99.90;;;;;;4999959;28;20026;-77
2022/11/23 00:21:17;;;;;;;71.15;33.22;;;3.70;99.90;;;;;;5002010;28;20018;-78
2022/11/23 00:23:43;;;;;;;68.38;32.15;;;3.70;99.90;;;;;;5006299;28;20034;-77
2022/11/23 00:26:09;;;;;;;71.15;33.40;;;3.80;99.90;;;;;;5004932;28;20027;-77
2022/11/23 00:28:39;;;;;;;72.00;31.42;;;3.70;99.90;;;;;;5013191;28;20026;-76
2022/11/23 00:31:18;;;;;;;74.88;35.08;;;3.80;99.90;;;;;;5016440;28;20026;-76
2022/11/23 00:33:52;;;;;;;72.85;32.63;;;3.80;99.90;;;;;;5014875;28;20030;-78
2022/11/23 00:36:18;;;;;;;74.82;32.53;;;3.80;99.90;;;;;;5009419;28;20030;-77
2022/11/23 00:38:44;;;;;;;64.93;31.85;;;3.80;99.90;;;;;;4999914;28;20503;-76
2022/11/23 00:41:15;;;;;;;72.57;34.08;;;3.80;99.90;;;;;;5000266;28;20027;-78
2022/11/23 00:43:41;;;;;;;74.75;32.67;;;3.80;99.90;;;;;;4999933;28;20419;-76
2022/11/23 00:46:14;;;;;;;75.22;32.40;;;3.80;99.90;;;;;;4998586;28;20026;-75
2022/11/23 00:48:41;;;;;;;71.88;33.28;;;3.90;99.90;;;;;;5002439;28;20031;-77
2022/11/23 00:51:09;;;;;;;78.68;33.78;;;3.80;99.90;;;;;;5011152;28;20023;-76
2022/11/23 00:53:35;;;;;;;66.90;32.40;;;3.90;99.90;;;;;;5010410;28;20033;-76
2022/11/23 00:56:01;;;;;;;68.53;31.90;;;3.80;99.90;;;;;;5002336;28;20077;-75
2022/11/23 00:58:27;;;;;;;74.00;35.08;;;3.80;99.90;;;;;;4998362;28;20046;-77
2022/11/23 01:01:09;;;;;;;75.07;32.85;;;3.80;99.90;;;;;;4993892;28;20546;-77
2022/11/23 01:03:37;;;;;;;77.05;34.33;;;3.90;99.90;;;;;;5012530;28;20022;-77
2022/11/23 01:06:09;;;;;;;66.55;30.48;;;3.90;99.90;;;;;;4994955;28;20113;-77
2022/11/23 01:08:35;;;;;;;67.03;32.97;;;3.90;99.90;;;;;;4998064;28;20026;-76
2022/11/23 01:11:04;;;;;;;73.00;31.90;;;3.90;99.90;;;;;;4997994;28;20030;-76
2022/11/23 01:13:30;;;;;;;70.35;31.75;;;3.90;99.90;;;;;;5000908;28;20081;-75
2022/11/23 01:15:56;;;;;;;71.10;31.33;;;3.90;99.90;;;;;;5017105;28;20015;-75
2022/11/23 01:18:22;;;;;;;74.88;32.72;;;3.80;99.90;;;;;;5019181;28;20066;-75
2022/11/23 01:20:48;;;;;;;63.53;31.25;;;3.90;99.90;;;;;;5019685;28;20170;-76
2022/11/23 01:23:14;;;;;;;69.35;33.45;;;3.90;99.90;;;;;;5019014;28;20022;-76
2022/11/23 01:25:39;;;;;;;72.60;31.35;;;3.80;99.90;;;;;;5004984;28;20432;-78
2022/11/23 01:28:05;;;;;;;74.93;33.63;;;3.90;99.90;;;;;;4997845;28;20408;-78
2022/11/23 01:30:31;;;;;;;73.72;33.05;;;3.90;99.90;;;;;;4998957;28;20022;-78
2022/11/23 01:32:56;;;;;;;77.38;31.60;;;4.00;99.90;;;;;;4997286;28;20037;-77
2022/11/23 01:35:22;;;;;;;64.00;30.98;;;4.00;99.90;;;;;;4996681;28;20041;-77
2022/11/23 01:37:47;;;;;;;70.05;32.30;;;4.10;99.90;;;;;;4999065;28;20030;-76
2022/11/23 01:40:13;;;;;;;75.47;32.05;;;3.90;99.90;;;;;;5018420;28;20015;-76
2022/11/23 01:42:46;;;;;;;71.72;31.77;;;3.90;99.90;;;;;;5009844;28;20081;-76
2022/11/23 01:45:40;;;;;;;63.63;30.48;;;3.90;99.90;;;;;;4999491;28;20077;-77
2022/11/23 01:48:35;;;;;;;63.53;30.90;;;4.00;99.90;;;;;;4998783;28;20018;-77
2022/11/23 01:51:05;;;;;;;65.90;30.00;;;4.10;99.90;;;;;;5002649;28;20484;-76
2022/11/23 01:53:32;;;;;;;67.32;30.38;;;4.00;99.90;;;;;;5009385;28;20042;-76
2022/11/23 01:56:00;;;;;;;62.38;30.10;;;4.00;99.90;;;;;;5013272;28;20078;-76
2022/11/23 01:58:28;;;;;;;69.03;31.77;;;4.00;99.90;;;;;;5016167;28;20030;-75
2022/11/23 02:00:53;;;;;;;71.25;31.15;;;4.00;99.90;;;;;;5017714;28;20034;-75
2022/11/23 02:03:19;;;;;;;67.82;31.55;;;4.00;99.90;;;;;;5016272;28;20041;-76
2022/11/23 02:05:52;;;;;;;66.07;31.00;;;4.00;99.90;;;;;;5014426;28;20022;-75
2022/11/23 02:08:19;;;;;;;69.63;31.95;;;4.00;99.90;;;;;;5003843;28;20077;-77
2022/11/23 02:10:45;;;;;;;65.95;30.20;;;4.00;99.90;;;;;;5003955;28;20357;-77
2022/11/23 02:13:12;;;;;;;74.82;31.75;;;4.00;99.90;;;;;;5001963;28;20167;-76
2022/11/23 02:15:39;;;;;;;63.40;31.30;;;4.00;99.90;;;;;;5016281;28;20030;-76
2022/11/23 02:18:12;;;;;;;63.78;30.38;;;4.10;99.90;;;;;;5001579;28;20550;-76
2022/11/23 02:20:38;;;;;;;67.65;31.02;;;4.10;99.90;;;;;;5004133;28;20496;-77
2022/11/23 02:23:03;;;;;;;66.32;30.52;;;4.00;99.90;;;;;;5000953;28;20027;-77
2022/11/23 02:25:42;;;;;;;66.13;31.23;;;4.10;99.90;;;;;;4994621;28;20026;-76
2022/11/23 02:28:09;;;;;;;63.00;28.88;;;4.20;99.90;;;;;;4994890;28;20113;-76
2022/11/23 02:30:37;;;;;;;64.93;30.92;;;4.20;99.90;;;;;;4994977;28;20030;-77
2022/11/23 02:33:04;;;;;;;64.28;29.20;;;4.20;99.90;;;;;;4994925;28;20026;-77
2022/11/23 02:35:31;;;;;;;65.63;31.35;;;4.10;99.90;;;;;;4994724;28;20034;-77
2022/11/23 02:37:57;;;;;;;66.70;31.15;;;4.20;99.90;;;;;;5002353;28;20032;-77
2022/11/23 02:40:32;;;;;;;59.33;28.85;;;4.20;99.90;;;;;;4999541;28;20026;-77
2022/11/23 02:42:58;;;;;;;66.65;29.67;;;4.20;99.90;;;;;;4999046;28;20019;-76
2022/11/23 02:45:58;;;;;;;71.30;30.30;;;4.20;99.90;;;;;;4994849;28;20392;-77
2022/11/23 02:48:24;;;;;;;63.92;29.73;;;4.10;99.90;;;;;;4995801;28;20502;-78
2022/11/23 02:50:50;;;;;;;64.53;30.77;;;4.10;99.90;;;;;;4994396;28;20080;-76
2022/11/23 02:53:16;;;;;;;64.57;29.88;;;4.10;99.90;;;;;;4994438;28;20513;-76
2022/11/23 02:55:42;;;;;;;62.45;29.88;;;4.20;99.90;;;;;;4994748;28;20030;-76
2022/11/23 02:58:07;;;;;;;68.60;30.30;;;4.20;99.90;;;;;;4994998;28;20391;-77
2022/11/23 03:00:33;;;;;;;61.03;29.85;;;4.10;99.90;;;;;;4997657;28;20073;-77
2022/11/23 03:03:00;;;;;;;61.42;29.75;;;4.10;99.90;;;;;;5001435;28;20029;-76
2022/11/23 03:05:26;;;;;;;67.57;30.55;;;4.10;99.90;;;;;;4994454;28;20419;-77
2022/11/23 03:07:52;;;;;;;69.43;29.88;;;4.10;99.90;;;;;;5002278;28;20022;-76
2022/11/23 03:10:18;;;;;;;66.25;29.95;;;4.10;99.90;;;;;;4998632;28;20084;-77
2022/11/23 03:12:44;;;;;;;63.50;29.48;;;4.10;99.90;;;;;;5003368;28;20030;-77
2022/11/23 03:15:09;;;;;;;64.05;30.88;;;4.20;99.90;;;;;;5006656;28;20030;-76
2022/11/23 03:17:35;;;;;;;72.55;30.38;;;4.20;99.90;;;;;;5005314;28;20022;-77
2022/11/23 03:20:01;;;;;;;70.35;29.48;;;4.20;99.90;;;;;;4999951;28;20022;-77
2022/11/23 03:22:27;;;;;;;65.40;29.60;;;4.30;99.90;;;;;;5004480;28;20084;-77
2022/11/23 03:24:52;;;;;;;64.82;29.48;;;4.30;99.90;;;;;;5005423;28;20061;-76
2022/11/23 03:27:18;;;;;;;62.50;30.80;;;4.20;99.90;;;;;;5032952;23;20049;-73
2022/11/23 03:29:43;;;;;;;60.33;29.65;;;4.20;99.90;;;;;;5037802;28;20072;-72
2022/11/23 03:32:09;;;;;;;66.18;28.83;;;4.20;99.90;;;;;;5050386;28;20094;-74
2022/11/23 03:34:34;;;;;;;63.65;29.25;;;4.30;99.90;;;;;;5041903;28;20420;-74
2022/11/23 03:37:00;;;;;;;65.57;28.60;;;4.30;99.90;;;;;;5032803;28;20017;-74
2022/11/23 03:39:26;;;;;;;62.03;28.02;;;4.30;99.90;;;;;;5037501;28;20421;-72
2022/11/23 03:41:51;;;;;;;63.22;28.02;;;4.30;99.90;;;;;;5051244;28;20494;-75
2022/11/23 03:44:17;;;;;;;62.70;29.70;;;4.40;99.90;;;;;;5048155;28;20022;-74
2022/11/23 03:46:42;;;;;;;62.20;28.00;;;4.40;99.90;;;;;;5049595;28;20045;-74
2022/11/23 03:49:08;;;;;;;60.67;27.70;;;4.40;99.90;;;;;;5053431;28;20065;-73
2022/11/23 03:51:33;;;;;;;64.45;28.42;;;4.40;99.90;;;;;;5044820;28;20057;-73
2022/11/23 03:53:59;;;;;;;56.50;26.92;;;4.50;99.90;;;;;;5034950;28;20038;-74
2022/11/23 03:56:24;;;;;;;59.28;27.02;;;4.40;99.90;;;;;;5035188;28;20159;-74
2022/11/23 03:58:50;;;;;;;58.42;27.25;;;4.40;99.90;;;;;;5035567;28;20386;-74
2022/11/23 04:01:15;;;;;;;62.40;28.10;;;4.50;99.90;;;;;;5037666;28;20025;-73
2022/11/23 04:03:41;;;;;;;55.10;26.10;;;4.40;99.90;;;;;;5038284;28;20024;-75
2022/11/23 04:06:06;;;;;;;53.88;25.58;;;4.50;99.90;;;;;;5045236;28;20049;-73
2022/11/23 04:08:32;;;;;;;63.03;26.52;;;4.50;99.90;;;;;;5046283;28;20443;-73
2022/11/23 04:10:58;;;;;;;53.78;25.45;;;4.50;99.90;;;;;;5035552;28;20478;-73
2022/11/23 04:13:24;;;;;;;63.70;26.92;;;4.50;99.90;;;;;;5038180;28;20478;-73
2022/11/23 04:15:49;;;;;;;57.95;25.73;;;4.50;99.90;;;;;;5044495;28;20045;-74
2022/11/23 04:18:15;;;;;;;60.63;27.58;;;4.60;99.90;;;;;;5035898;28;20091;-75
2022/11/23 04:20:41;;;;;;;60.65;27.15;;;4.60;99.90;;;;;;5030722;28;20021;-74
2022/11/23 04:23:06;;;;;;;55.42;25.65;;;4.60;99.90;;;;;;5036266;28;20026;-75
2022/11/23 04:25:32;;;;;;;55.45;25.85;;;4.70;99.90;;;;;;5037174;28;20056;-75
2022/11/23 04:27:57;;;;;;;50.78;24.33;;;4.70;99.90;;;;;;5035905;28;20047;-75
2022/11/23 04:30:23;;;;;;;58.42;24.00;;;4.80;99.90;;;;;;5037581;28;20139;-74
2022/11/23 04:32:48;;;;;;;61.08;25.73;;;4.80;99.90;;;;;;5036113;28;20105;-74
2022/11/23 04:35:14;;;;;;;60.83;24.85;;;4.80;99.90;;;;;;5035723;28;20026;-74
2022/11/23 04:37:40;;;;;;;59.03;23.67;;;4.80;99.90;;;;;;5035897;28;20052;-75
2022/11/23 04:40:06;;;;;;;49.05;23.98;;;4.90;99.90;;;;;;5036009;28;20026;-74
2022/11/23 04:42:31;;;;;;;49.17;23.92;;;4.90;99.90;;;;;;5036102;28;20083;-74
2022/11/23 04:44:57;;;;;;;48.72;23.30;;;4.90;99.90;;;;;;5036374;28;20065;-74
2022/11/23 04:47:23;;;;;;;47.08;22.65;;;4.90;99.90;;;;;;5035196;28;20029;-74
2022/11/23 04:49:49;;;;;;;51.03;23.15;;;4.90;99.90;;;;;;5035353;28;20457;-74
2022/11/23 04:52:15;;;;;;;49.10;22.83;;;4.90;99.90;;;;;;5040421;28;20055;-75
2022/11/23 04:54:41;;;;;;;48.28;23.35;;;4.90;99.90;;;;;;5046458;28;20029;-75
2022/11/23 04:57:06;;;;;;;55.03;23.90;;;5.00;99.90;;;;;;5037004;28;20091;-76
2022/11/23 04:59:32;;;;;;;47.10;23.05;;;4.90;99.90;;;;;;5036189;28;20497;-76
2022/11/23 05:01:57;;;;;;;47.50;23.05;;;4.90;99.90;;;;;;5036302;28;20367;-75
2022/11/23 05:04:23;;;;;;;59.00;24.48;;;4.90;99.90;;;;;;5038374;28;20520;-74
2022/11/23 05:06:48;;;;;;;50.10;22.90;;;4.90;99.90;;;;;;5037113;28;20545;-74
2022/11/23 05:09:14;;;;;;;55.83;23.42;;;4.90;99.90;;;;;;5036609;28;20053;-75
2022/11/23 05:11:40;;;;;;;45.80;22.48;;;4.90;99.90;;;;;;5037346;28;20029;-75
2022/11/23 05:14:05;;;;;;;47.67;23.88;;;5.00;99.90;;;;;;5036525;28;20116;-75
2022/11/23 05:16:31;;;;;;;50.33;23.70;;;4.90;99.90;;;;;;5034126;28;20040;-79
2022/11/23 05:18:56;;;;;;;49.28;23.58;;;4.90;99.90;;;;;;5035387;28;20026;-75
2022/11/23 05:21:22;;;;;;;52.50;24.30;;;5.00;99.90;;;;;;5035530;28;20076;-75
2022/11/23 05:23:47;;;;;;;57.35;25.00;;;5.00;99.90;;;;;;5035607;28;20021;-76
2022/11/23 05:26:13;;;;;;;58.95;23.38;;;5.00;99.90;;;;;;5035184;28;20052;-77
2022/11/23 05:28:38;;;;;;;54.28;24.52;;;5.00;99.90;;;;;;5035482;28;20068;-74
2022/11/23 05:31:04;;;;;;;52.50;24.67;;;4.90;99.90;;;;;;5037005;28;20055;-74
2022/11/23 05:33:30;;;;;;;50.75;24.17;;;4.90;99.90;;;;;;5044018;28;20029;-76
2022/11/23 05:35:55;;;;;;;52.53;23.27;;;4.90;99.90;;;;;;5042559;28;20028;-74
2022/11/23 05:38:21;;;;;;;59.45;23.95;;;4.90;99.90;;;;;;5038285;28;20018;-76
2022/11/23 05:40:46;;;;;;;55.35;24.60;;;4.90;99.90;;;;;;5037090;28;20516;-76
2022/11/23 05:43:12;;;;;;;57.53;25.30;;;4.80;99.90;;;;;;5043470;28;20028;-75
2022/11/23 05:45:38;;;;;;;53.28;26.08;;;4.80;99.90;;;;;;5036250;28;20044;-75
2022/11/23 05:48:04;;;;;;;46.00;23.33;;;4.90;99.90;;;;;;5037401;28;20029;-75
2022/11/23 05:50:30;;;;;;;55.92;23.88;;;4.90;99.90;;;;;;5039059;28;20104;-75
2022/11/23 05:52:59;;;;;;;52.58;23.98;;;4.90;99.90;;;;;;5038706;28;20098;-75
2022/11/23 05:55:25;;;;;;;50.75;23.58;;;4.90;99.90;;;;;;5036381;28;20057;-76
2022/11/23 05:57:51;;;;;;;55.10;24.15;;;4.90;99.90;;;;;;5039942;28;20474;-76
2022/11/23 06:00:17;;;;;;;53.97;23.80;;;4.90;99.90;;;;;;5041760;28;20077;-76
2022/11/23 06:02:42;;;;;;;51.45;23.67;;;4.90;99.90;;;;;;5042981;28;20071;-75
2022/11/23 06:05:08;;;;;;;51.13;23.00;;;4.90;99.90;;;;;;5046157;28;20029;-75
2022/11/23 06:07:35;;;;;;;53.97;23.45;;;4.90;99.90;;;;;;5043448;28;20113;-75
2022/11/23 06:10:01;;;;;;;51.10;24.10;;;4.90;99.90;;;;;;5035465;28;20040;-75
2022/11/23 06:12:27;;;;;;;52.97;23.52;;;4.90;99.90;;;;;;5035669;28;20032;-75
2022/11/23 06:14:53;;;;;;;50.30;22.27;;;5.00;99.90;;;;;;5034655;28;20140;-76
2022/11/23 06:17:18;;;;;;;50.03;23.90;;;4.90;99.90;;;;;;5035152;28;20029;-76
2022/11/23 06:19:44;;;;;;;46.33;22.83;;;4.90;99.90;;;;;;5036120;28;20386;-76
2022/11/23 06:22:10;;;;;;;56.40;23.88;;;5.00;99.90;;;;;;5037652;28;20032;-76
2022/11/23 06:24:35;;;;;;;49.63;23.65;;;5.00;99.90;;;;;;5038640;28;20032;-75
2022/11/23 06:27:01;;;;;;;51.13;23.52;;;5.00;99.90;;;;;;5048074;28;20041;-75
2022/11/23 06:29:26;;;;;;;49.45;23.10;;;4.90;99.90;;;;;;5045721;28;20312;-74
2022/11/23 06:31:53;;;;;;;55.47;23.98;;;4.90;99.90;;;;;;5044435;28;20063;-73
2022/11/23 06:34:18;;;;;;;47.10;22.00;;;4.90;99.90;;;;;;5040560;28;20105;-74
2022/11/23 06:36:44;;;;;;;56.83;23.52;;;5.00;99.90;;;;;;5044200;28;20053;-74
2022/11/23 06:39:10;;;;;;;47.85;22.77;;;5.00;99.90;;;;;;5056920;28;20029;-73
2022/11/23 06:41:35;;;;;;;45.50;20.70;;;5.00;99.90;;;;;;5042511;28;20528;-74
2022/11/23 06:44:01;;;;;;;53.25;21.90;;;5.00;99.90;;;;;;5035127;28;20064;-76
2022/11/23 06:46:26;;;;;;;54.97;21.98;;;5.00;99.90;;;;;;5034511;28;20044;-73
2022/11/23 06:48:52;;;;;;;50.95;22.90;;;5.00;99.90;;;;;;5036744;28;20033;-75
2022/11/23 06:51:17;;;;;;;45.38;21.35;;;5.10;99.90;;;;;;5035726;28;20030;-76
2022/11/23 06:53:43;;;;;;;50.67;22.27;;;5.20;99.90;;;;;;5034115;28;20490;-75
2022/11/23 06:56:09;;;;;;;56.28;22.60;;;5.10;99.90;;;;;;5033207;28;20022;-76
2022/11/23 06:58:35;;;;;;;40.55;20.67;;;5.10;99.90;;;;;;5034850;28;20022;-74
2022/11/23 07:01:04;;;;;;;55.67;21.70;;;5.10;99.90;;;;;;5034688;28;20021;-75
2022/11/23 07:03:30;;;;;;;45.20;21.77;;;5.20;99.90;;;;;;5034224;28;20032;-75
2022/11/23 07:05:55;;;;;;;42.70;20.55;;;5.10;99.90;;;;;;5033587;28;20079;-74
2022/11/23 07:08:21;;;;;;;43.65;20.73;;;5.10;99.90;;;;;;5033930;28;20037;-74
2022/11/23 07:10:47;;;;;;;41.85;19.98;;;5.20;99.90;;;;;;5034469;28;20026;-79
2022/11/23 07:13:13;;;;;;;53.13;21.40;;;5.20;99.90;;;;;;5034553;28;20068;-75
2022/11/23 07:15:39;;;;;;;42.58;21.67;;;5.20;99.90;;;;;;5032580;28;20548;-75
2022/11/23 07:18:05;;;;;;;46.95;20.90;;;5.20;99.90;;;;;;5034625;28;20064;-73
2022/11/23 07:20:31;;;;;;;49.97;20.58;;;5.20;99.90;;;;;;5034192;28;20520;-75
2022/11/23 07:23:09;;;;;;;42.50;20.67;;;5.20;99.90;;;;;;5033806;28;20029;-76
2022/11/23 07:25:36;;;;;;;41.22;19.45;;;5.30;99.90;;;;;;5033087;28;20178;-77
2022/11/23 07:28:02;;;;;;;46.13;20.05;;;5.30;99.90;;;;;;5047649;28;20091;-76
2022/11/23 07:30:30;;;;;;;44.08;20.00;;;5.30;99.90;;;;;;5039897;28;20025;-76
2022/11/23 07:33:07;;;;;;;44.63;19.05;;;5.30;99.90;;;;;;5032571;28;20109;-75
2022/11/23 07:35:33;;;;;;;42.13;19.83;;;5.30;99.90;;;;;;5025381;28;20536;-76
2022/11/23 07:37:59;;;;;;;39.92;20.15;;;5.30;99.90;;;;;;5034383;28;20021;-76
2022/11/23 07:40:26;;;;;;;40.50;19.38;;;5.40;99.90;;;;;;5034108;28;20025;-74
2022/11/23 07:42:51;;;;;;;54.38;19.70;;;5.40;99.90;;;;;;5033100;28;20497;-74
2022/11/23 07:45:17;;;;;;;59.80;21.17;;;5.50;99.90;;;;;;5031820;28;20025;-76
2022/11/23 07:47:43;;;;;;;37.80;19.45;;;5.40;99.90;;;;;;5034062;28;20041;-76
2022/11/23 07:50:11;;;;;;;42.63;19.10;;;5.40;99.90;;;;;;5035922;28;20155;-75
2022/11/23 07:52:38;;;;;;;43.58;18.85;;;5.50;99.90;;;;;;5034370;28;20033;-76
2022/11/23 07:55:05;;;;;;;45.60;19.90;;;5.60;99.90;;;;;;5035892;28;20032;-76
2022/11/23 07:57:30;;;;;;;39.00;19.02;;;5.50;99.90;;;;;;5039090;28;20174;-75
2022/11/23 07:59:56;;;;;;;48.05;19.75;;;5.60;99.90;;;;;;5042767;28;20122;-77
2022/11/23 08:02:22;;;;;;;49.15;19.95;;;5.60;99.90;;;;;;5045592;28;20022;-77
2022/11/23 08:04:47;;;;;;;40.70;18.42;;;5.60;99.90;;;;;;5043079;28;20025;-76
2022/11/23 08:07:13;;;;;;;55.08;21.58;;;5.60;99.90;;;;;;5046407;28;20037;-75
2022/11/23 08:09:38;;;;;;;40.63;19.13;;;5.60;99.90;;;;;;5051650;28;20033;-76
2022/11/23 08:12:05;;;;;;;62.22;24.50;;;5.70;99.90;;;;;;5055322;28;20029;-76
2022/11/23 08:14:30;;;;;;;51.78;21.95;;;5.70;99.90;;;;;;5056493;28;20032;-76
2022/11/23 08:16:56;;;;;;;49.67;21.08;;;5.70;99.90;;;;;;5057651;28;20017;-76
2022/11/23 08:19:22;;;;;;;35.78;18.50;;;5.80;99.90;;;;;;5057572;28;20060;-75
2022/11/23 08:21:47;;;;;;;38.83;17.98;;;5.80;99.90;;;;;;5059004;28;20044;-76
2022/11/23 08:24:13;;;;;;;44.42;17.92;;;5.80;99.90;;;;;;5041255;28;20486;-74
2022/11/23 08:26:38;;;;;;;41.72;18.80;;;5.80;99.90;;;;;;5036512;28;20026;-75
2022/11/23 08:29:04;;;;;;;36.65;17.50;;;5.90;99.90;;;;;;5038122;28;20036;-76
2022/11/23 08:31:30;;;;;;;38.83;17.13;;;5.90;99.90;;;;;;5038624;28;20033;-77
2022/11/23 08:33:56;;;;;;;39.85;18.63;;;5.90;99.90;;;;;;5038566;28;20033;-76
2022/11/23 08:36:22;;;;;;;44.25;18.42;;;5.90;99.90;;;;;;5039049;28;20018;-77
2022/11/23 08:38:50;;;;;;;40.33;17.88;;;6.00;99.90;;;;;;5039406;28;20390;-76
2022/11/23 08:41:19;;;;;;;41.35;19.00;;;6.00;99.90;;;;;;5038704;28;20467;-76
2022/11/23 08:43:49;;;;;;;45.42;17.85;;;6.00;99.90;;;;;;5039495;28;20451;-76
2022/11/23 08:46:15;;;;;;;38.72;16.77;;;6.10;99.90;;;;;;5036387;28;20088;-74
2022/11/23 08:48:41;;;;;;;41.30;16.70;;;6.10;99.90;;;;;;5036591;28;20026;-74
2022/11/23 08:51:07;;;;;;;37.42;16.85;;;6.10;99.90;;;;;;5034884;28;20187;-76
2022/11/23 08:53:32;;;;;;;35.05;16.27;;;6.20;99.90;;;;;;5037250;28;20021;-76
2022/11/23 08:56:03;;;;;;;33.60;15.60;;;6.30;99.90;;;;;;5036749;28;20026;-79
2022/11/23 08:58:29;;;;;;;35.40;15.25;;;6.30;99.90;;;;;;5037021;28;20497;-77
2022/11/23 09:00:54;;;;;;;30.23;15.25;;;6.30;99.90;;;;;;5036526;28;20026;-77
2022/11/23 09:03:20;;;;;;;37.33;15.50;;;6.40;99.90;;;;;;5039468;28;20025;-77
2022/11/23 09:05:46;;;;;;;30.05;14.95;;;6.40;99.90;;;;;;5041305;28;20036;-76
2022/11/23 09:08:11;;;;;;;31.60;13.82;;;6.50;99.90;;;;;;5042604;28;20026;-76
2022/11/23 09:10:37;;;;;;;31.52;14.18;;;6.60;99.90;;;;;;5042442;28;20029;-77
2022/11/23 09:13:03;;;;;;;31.08;14.18;;;6.60;99.90;;;;;;5043890;28;20692;-76
2022/11/23 09:15:29;;;;;;;31.90;13.60;;;6.80;99.90;;;;;;5043383;28;20022;-78
2022/11/23 09:17:56;;;;;;;43.78;13.73;;;6.90;99.90;;;;;;5047107;28;20038;-76
2022/11/23 09:20:22;;;;;;;37.45;12.40;;;7.10;99.90;;;;;;5041712;28;20079;-77
2022/11/23 09:22:54;;;;;;;31.67;12.18;;;7.20;99.90;;;;;;5036744;28;20017;-76
2022/11/23 09:25:21;;;;;;;28.02;11.95;;;7.30;99.90;;;;;;5036276;28;20483;-76
2022/11/23 09:27:47;;;;;;;34.72;11.88;;;7.30;99.90;;;;;;5036671;28;20124;-77
2022/11/23 09:30:13;;;;;;;35.72;11.27;;;7.20;99.90;;;;;;5038615;28;20025;-77
2022/11/23 09:32:39;;;;;;;28.63;11.15;;;7.30;99.90;;;;;;5039473;28;20056;-77
2022/11/23 09:35:05;;;;;;;25.10;10.93;;;7.40;99.90;;;;;;5038132;28;20104;-76
2022/11/23 09:37:31;;;;;;;25.38;10.63;;;7.40;99.90;;;;;;5037956;28;20021;-76
2022/11/23 09:39:56;;;;;;;30.73;10.25;;;7.40;99.90;;;;;;5042671;28;20033;-75
2022/11/23 09:42:39;;;;;;;24.13;10.70;;;7.50;99.90;;;;;;5040664;28;20052;-75
2022/11/23 09:45:15;;;;;;;21.23;10.52;;;7.50;99.90;;;;;;5046539;28;20532;-75
2022/11/23 09:48:10;;;;;;;31.83;10.65;;;7.70;99.90;;;;;;5040246;28;20037;-77
2022/11/23 09:50:54;;;;;;;31.65;10.18;;;7.80;99.90;;;;;;5042903;28;20025;-75
2022/11/23 09:53:40;;;;;;;28.00;10.00;;;7.80;99.90;;;;;;5042518;28;20418;-77
2022/11/23 09:56:19;;;;;;;20.30;8.77;;;8.00;99.90;;;;;;5040598;28;20425;-77
2022/11/23 09:58:45;;;;;;;23.90;10.15;;;8.10;99.90;;;;;;5038924;28;20018;-77
2022/11/23 10:01:13;;;;;;;22.25;9.80;;;8.30;99.90;;;;;;5051185;28;20467;-77
2022/11/23 10:03:41;;;;;;;24.85;10.35;;;8.10;99.90;;;;;;5045556;28;20029;-77
2022/11/23 10:06:18;;;;;;;28.20;9.60;;;8.20;99.90;;;;;;5034970;28;20048;-76
2022/11/23 10:09:14;;;;;;;31.33;9.82;;;8.30;99.90;;;;;;5037318;28;20049;-77
2022/11/23 10:11:59;;;;;;;26.13;9.30;;;8.40;99.90;;;;;;5039160;28;20025;-78
2022/11/23 10:15:06;;;;;;;29.58;9.70;;;8.30;99.90;;;;;;5038666;28;20021;-79
2022/11/23 10:17:35;;;;;;;18.88;8.63;;;8.40;99.90;;;;;;5024265;28;20065;-79
2022/11/23 10:20:48;;;;;;;29.58;9.40;;;8.40;99.90;;;;;;5037949;28;20034;-76
2022/11/23 10:23:30;;;;;;;21.50;9.10;;;8.50;99.90;;;;;;5035483;28;20354;-77
2022/11/23 10:25:56;;;;;;;20.80;9.10;;;8.60;99.90;;;;;;5036434;28;20033;-74
2022/11/23 10:28:23;;;;;;;30.05;9.55;;;8.60;99.90;;;;;;5040129;28;20033;-76
2022/11/23 10:31:20;;;;;;;23.63;8.95;;;8.60;99.90;;;;;;5044179;28;20396;-76
2022/11/23 10:34:01;;;;;;;19.67;8.52;;;8.70;99.50;;;;;;5044842;28;20136;-75
2022/11/23 10:36:27;;;;;;;22.63;8.52;;;8.70;99.70;;;;;;5043818;28;20060;-76
2022/11/23 10:38:58;;;;;;;20.77;7.55;;;8.70;99.90;;;;;;5049799;28;20037;-75
2022/11/23 10:41:23;;;;;;;25.10;8.40;;;8.70;99.70;;;;;;5050622;28;20056;-73
2022/11/23 10:44:24;;;;;;;24.23;8.45;;;8.70;99.90;;;;;;5041087;28;20021;-74
2022/11/23 10:46:50;;;;;;;30.23;8.23;;;8.70;99.90;;;;;;5019318;28;20439;-75
2022/11/23 10:49:29;;;;;;;20.10;6.80;;;8.70;99.90;;;;;;5034219;28;20072;-73
2022/11/23 10:52:05;;;;;;;22.38;8.02;;;8.70;99.90;;;;;;5034186;28;20059;-76
2022/11/23 10:54:38;;;;;;;27.30;7.38;;;8.70;99.90;;;;;;5033835;28;20041;-76
2022/11/23 10:57:26;;;;;;;23.20;7.75;;;8.50;99.90;;;;;;5032053;28;20025;-75
2022/11/23 11:00:03;;;;;;;19.23;7.15;;;8.60;99.90;;;;;;5034729;28;20025;-74
2022/11/23 11:02:38;;;;;;;22.35;7.32;;;8.60;99.90;;;;;;5034844;28;20032;-74
2022/11/23 11:05:38;;;;;;;25.02;8.10;;;8.60;99.90;;;;;;5034470;28;20196;-74
2022/11/23 11:08:15;;;;;;;28.02;8.07;;;8.60;99.90;;;;;;5033761;28;20036;-74
2022/11/23 11:11:07;;;;;;;25.17;7.60;;;8.70;99.90;;;;;;5033834;28;20034;-75
2022/11/23 11:13:45;;;;;;;24.98;8.48;;;8.70;99.90;;;;;;5033767;28;20025;-77
2022/11/23 11:16:21;;;;;;;25.83;9.27;;;8.70;99.90;;;;;;5034004;28;20112;-76
2022/11/23 11:18:47;;;;;;;47.50;20.73;;;8.80;99.90;;;;;;5033483;28;20026;-77
2022/11/23 11:21:20;;;;;;;25.50;7.70;;;9.10;99.90;;;;;;5033641;28;20036;-75
2022/11/23 11:23:56;;;;;;;25.20;8.15;;;8.70;99.90;;;;;;5033669;28;20482;-75
2022/11/23 11:26:24;;;;;;;25.58;8.45;;;8.90;99.90;;;;;;5034304;28;20083;-76
2022/11/23 11:29:03;;;;;;;19.70;6.97;;;8.80;99.90;;;;;;5033055;28;20120;-77
2022/11/23 11:31:44;;;;;;;28.17;9.57;;;8.70;99.90;;;;;;5034962;28;20026;-76
2022/11/23 11:34:37;;;;;;;25.75;9.70;;;8.80;99.90;;;;;;5038633;28;20025;-76
2022/11/23 11:37:07;;;;;;;23.00;6.40;;;8.80;99.90;;;;;;5036846;28;20021;-77
2022/11/23 11:39:52;;;;;;;21.23;6.65;;;8.70;99.90;;;;;;5038753;28;20593;-75
2022/11/23 11:42:22;;;;;;;17.70;6.90;;;8.80;99.90;;;;;;5037874;28;20029;-75
2022/11/23 11:44:51;;;;;;;21.08;6.35;;;8.80;99.90;;;;;;5037334;28;20125;-74
2022/11/23 11:47:35;;;;;;;27.30;7.43;;;8.80;99.90;;;;;;5037289;28;20267;-75
2022/11/23 11:50:14;;;;;;;19.90;7.20;;;8.80;99.90;;;;;;5037037;28;20026;-76
2022/11/23 11:52:42;;;;;;;26.63;6.85;;;8.90;99.90;;;;;;5036542;28;20044;-76
2022/11/23 11:55:21;;;;;;;24.98;7.32;;;9.00;99.90;;;;;;5036945;28;20459;-75
2022/11/23 11:58:13;;;;;;;32.78;7.57;;;9.00;99.90;;;;;;5037252;28;20021;-76
2022/11/23 12:00:38;;;;;;;23.92;6.90;;;9.20;99.90;;;;;;5037580;28;20110;-76
2022/11/23 12:03:38;;;;;;;25.73;7.53;;;9.00;99.90;;;;;;5037400;28;20053;-77
2022/11/23 12:06:10;;;;;;;21.30;6.72;;;9.10;99.90;;;;;;5037524;28;20032;-76
2022/11/23 12:08:55;;;;;;;18.08;7.20;;;9.10;99.90;;;;;;5040890;28;20030;-73
2022/11/23 12:11:21;;;;;;;22.17;7.03;;;9.10;99.90;;;;;;5040631;28;20073;-75
2022/11/23 12:13:47;;;;;;;21.60;7.65;;;9.00;99.90;;;;;;5040896;28;20026;-75
2022/11/23 12:16:19;;;;;;;24.42;8.02;;;9.10;99.90;;;;;;5041591;28;20398;-75
2022/11/23 12:19:08;;;;;;;21.25;7.03;;;9.20;99.90;;;;;;5041718;28;20036;-74
2022/11/23 12:22:00;;;;;;;23.63;6.57;;;9.30;99.90;;;;;;5043536;28;20139;-74
2022/11/23 12:24:50;;;;;;;25.20;7.57;;;9.40;99.90;;;;;;5041774;28;20371;-76
2022/11/23 12:27:41;;;;;;;25.65;7.25;;;9.50;99.90;;;;;;5049269;28;20086;-74
2022/11/23 12:30:20;;;;;;;21.40;7.47;;;9.10;99.90;;;;;;5050101;28;20025;-77
2022/11/23 12:33:11;;;;;;;18.38;6.70;;;9.30;99.90;;;;;;5054977;28;20021;-74
2022/11/23 12:35:37;;;;;;;23.15;6.60;;;9.20;99.90;;;;;;5057826;28;20569;-73
2022/11/23 12:38:19;;;;;;;25.13;6.68;;;9.10;99.90;;;;;;5043758;28;20033;-75
2022/11/23 12:41:03;;;;;;;14.77;6.70;;;9.20;99.90;;;;;;5037934;28;20035;-74
2022/11/23 12:43:38;;;;;;;21.70;7.10;;;9.20;99.90;;;;;;5036018;28;20018;-74
2022/11/23 12:46:20;;;;;;;24.75;7.20;;;9.10;99.90;;;;;;5039009;28;20028;-75
2022/11/23 12:49:27;;;;;;;21.38;5.70;;;9.20;99.90;;;;;;5044456;28;20034;-76
2022/11/23 12:52:13;;;;;;;26.08;7.50;;;9.20;99.90;;;;;;5049275;28;20056;-74